• Join FlightAware (Why Join?)
  • Login
  • US Flag 
05:40PM EDT


 

Airport Tracker/Info


-or-


 

Live Flight TrackerFlight Track Log ✈ AAL1326 ✈ 05-Apr-2013 ✈ KORD - KFLL

Flight Track Log - Related Links

Times and Time Zones

All times are in EDT time to prevent confusion due to time zone crossing. See the AAL1326 flight status page for this flight to view local times or setup timezone preferences in your user account.

Time Position Orientation Groundspeed Altitude Reporting Facility
EDT Latitude Longitude Course Direction KTS MPH feet Rate Location/Type
07:56PM 41.9840 -87.8890 90° East 168 193 1,000  Level FlightAware
07:56PM 41.9810 -87.8750 106° East 166 191 2,000 2,760 Climbing FlightAware
07:56PM 41.9740 -87.8630 128° Southeast 186 214 2,400 1,620 Climbing FlightAware
07:57PM 41.9540 -87.8410 141° Southeast 230 265 3,100 1,920 Climbing FlightAware
07:57PM 41.9280 -87.8120 140° Southeast 258 297 4,200 1,860 Climbing FlightAware
07:58PM 41.9130 -87.7950 140° Southeast 265 305 4,500 660 Climbing FlightAware
07:58PM 41.8810 -87.7710 151° Southeast 267 307 4,700 300 Climbing FlightAware
07:58PM 41.8520 -87.7680 176° South 265 305 4,800 120 Climbing FlightAware
07:59PM 41.8310 -87.7660 176° South 265 305 4,800 240 Level FlightAware
07:59PM 41.7950 -87.7640 178° South 268 308 5,000 1,800 Climbing FlightAware
08:00PM 41.7630 -87.7620 177° South 271 312 6,500 3,120 Climbing FlightAware
08:00PM 41.7260 -87.7570 174° South 288 331 7,900 3,000 Climbing FlightAware
08:01PM 41.6900 -87.7530 175° South 300 345 9,300 3,240 Climbing FlightAware
08:01PM 41.6270 -87.7470 176° South 314 361 11,700 3,000 Climbing FlightAware
08:02PM 41.5690 -87.7400 175° South 328 377 13,600 2,700 Climbing FlightAware
08:03PM 41.4960 -87.7340 176° South 343 395 15,600 2,220 Climbing FlightAware
08:03PM 41.4310 -87.7280 176° South 374 430 16,800 1,920 Climbing FlightAware
08:04PM 41.3590 -87.7260 179° South 391 450 18,200 2,160 Climbing FlightAware
08:05PM 41.2790 -87.7260 180° South 402 463 19,900 2,280 Climbing FlightAware
08:05PM 41.2220 -87.7260 180° South 408 470 21,100 2,160 Climbing FlightAware
08:06PM 41.1140 -87.7140 175° South 424 488 23,000 1,920 Climbing FlightAware
08:07PM 41.0360 -87.7040 174° South 435 501 24,200 1,740 Climbing FlightAware
08:07PM 40.9650 -87.6940 174° South 443 510 25,200 1,800 Climbing FlightAware
08:08PM 40.8800 -87.6820 174° South 449 517 26,500 1,740 Climbing FlightAware
08:09PM 40.7890 -87.6700 174° South 456 525 27,700 1,500 Climbing FlightAware
08:10PM 40.7050 -87.6590 174° South 464 534 28,700 1,380 Climbing FlightAware
08:10PM 40.6200 -87.6480 174° South 471 542 29,600 1,260 Climbing FlightAware
08:11PM 40.5250 -87.6350 174° South 481 554 30,500 1,260 Climbing FlightAware
08:12PM 40.4160 -87.6210 174° South 490 564 31,500 1,440 Climbing FlightAware
08:12PM 40.3290 -87.6040 172° South 494 568 32,600 1,620 Climbing FlightAware
08:13PM 40.2440 -87.5610 159° South 500 575 33,700 1,500 Climbing FlightAware
08:14PM 40.1480 -87.5000 154° Southeast 499 574 34,800 1,380 Climbing FlightAware
08:14PM 40.0670 -87.4490 154° Southeast 495 570 35,700 1,200 Climbing FlightAware
08:15PM 39.9840 -87.3960 154° Southeast 495 570 36,400 900 Climbing FlightAware
08:16PM 39.8940 -87.3370 153° Southeast 497 572 37,000 420 Climbing FlightAware
08:17PM 39.8130 -87.2820 152° Southeast 498 573 37,000  Level FlightAware
08:17PM 39.7190 -87.2180 152° Southeast 497 572 37,000  Level FlightAware
08:18PM 39.6400 -87.1660 153° Southeast 497 572 37,000  Level FlightAware
08:19PM 39.5550 -87.1100 153° Southeast 495 570 37,000  Level FlightAware
08:19PM 39.4650 -87.0500 153° Southeast 493 567 37,000  Level FlightAware
08:20PM 39.3830 -86.9950 153° Southeast 493 567 37,000  Level FlightAware
08:21PM 39.2910 -86.9350 153° Southeast 491 565 37,000  Level FlightAware
08:21PM 39.2090 -86.8810 153° Southeast 491 565 37,000  Level FlightAware
08:22PM 39.1290 -86.8280 153° Southeast 491 565 37,000  Level FlightAware
08:23PM 39.0400 -86.7670 152° Southeast 491 565 37,000  Level FlightAware
08:24PM 38.9630 -86.7150 152° Southeast 492 566 37,000  Level FlightAware
08:24PM 38.8690 -86.6510 152° Southeast 494 568 37,000  Level FlightAware
08:25PM 38.7880 -86.5970 153° Southeast 495 570 37,000  Level FlightAware
08:26PM 38.7080 -86.5430 152° Southeast 496 571 37,000  Level FlightAware
08:26PM 38.6480 -86.5020 152° Southeast 496 571 37,000  Level FlightAware
08:27PM 38.5620 -86.4450 153° Southeast 497 572 37,000  Level FlightAware
08:28PM 38.4720 -86.3850 152° Southeast 496 571 37,000  Level FlightAware
08:28PM 38.3980 -86.3360 153° Southeast 496 571 37,000  Level FlightAware
08:29PM 38.2970 -86.2690 152° Southeast 495 570 37,000  Level FlightAware
08:30PM 38.2160 -86.2150 152° Southeast 494 568 37,000  Level FlightAware
08:30PM 38.1370 -86.1640 153° Southeast 495 570 37,000  Level FlightAware
08:31PM 38.0490 -86.1050 152° Southeast 494 568 37,000  Level FlightAware
08:32PM 37.9670 -86.0510 153° Southeast 493 567 37,000  Level FlightAware
08:32PM 37.8750 -85.9910 153° Southeast 494 568 37,000  Level FlightAware
08:33PM 37.7930 -85.9380 153° Southeast 494 568 37,000  Level FlightAware
08:34PM 37.7110 -85.8840 152° Southeast 494 568 37,000  Level FlightAware
08:34PM 37.6658 -85.8549 153° Southeast 494 568 37,000  Level FlightAware ADS-B
08:35PM 37.6013 -85.8132 153° Southeast 493 567 37,000  Level FlightAware ADS-B
08:35PM 37.5348 -85.7701 153° Southeast 493 567 37,000  Level FlightAware ADS-B
08:36PM 37.4725 -85.7298 153° Southeast 492 566 37,000  Level FlightAware ADS-B
08:36PM 37.3950 -85.6797 153° Southeast 492 566 37,000  Level FlightAware ADS-B
08:37PM 37.3373 -85.6442 154° Southeast 491 565 37,000  Level FlightAware ADS-B
08:37PM 37.2740 -85.6180 162° South 488 562 37,000  Level FlightAware
08:38PM 37.2210 -85.6003 165° South 488 562 37,000  Level FlightAware ADS-B
08:38PM 37.1529 -85.5772 165° South 489 563 37,000  Level FlightAware ADS-B
08:39PM 37.0874 -85.5551 165° South 489 563 37,000  Level FlightAware ADS-B
08:39PM 37.0211 -85.5327 165° South 490 564 37,000  Level FlightAware ADS-B
08:40PM 36.9010 -85.4923 165° South 491 565 37,000  Level FlightAware ADS-B
08:41PM 36.8339 -85.4697 165° South 491 565 37,000  Level FlightAware ADS-B
08:42PM 36.7172 -85.4306 165° South 493 567 37,000  Level FlightAware ADS-B
08:42PM 36.6437 -85.4058 165° South 493 567 37,000  Level FlightAware ADS-B
08:43PM 36.5769 -85.3835 165° South 493 567 37,000  Level FlightAware ADS-B
08:43PM 36.5103 -85.3613 165° South 493 567 37,000  Level FlightAware ADS-B
08:44PM 36.4424 -85.3386 165° South 494 568 37,000  Level FlightAware ADS-B
08:44PM 36.3731 -85.3157 165° South 494 568 37,000  Level FlightAware ADS-B
08:45PM 36.3059 -85.2933 165° South 493 567 37,000  Level FlightAware ADS-B
08:45PM 36.2381 -85.2709 165° South 494 568 37,000  Level FlightAware ADS-B
08:46PM 36.1702 -85.2483 165° South 494 568 37,000  Level FlightAware ADS-B
08:46PM 36.0722 -85.2160 165° South 495 570 37,000  Level FlightAware ADS-B
08:47PM 36.0059 -85.1941 165° South 495 570 37,000  Level FlightAware ADS-B
08:47PM 35.9389 -85.1721 165° South 495 570 37,000  Level FlightAware ADS-B
08:48PM 35.8714 -85.1499 165° South 495 570 37,000  Level FlightAware ADS-B
08:48PM 35.8043 -85.1280 165° South 494 568 37,000  Level FlightAware ADS-B
08:49PM 35.7347 -85.1052 165° South 493 567 37,000  Level FlightAware ADS-B
08:49PM 35.6685 -85.0838 165° South 493 567 37,000  Level FlightAware ADS-B
08:50PM 35.5984 -85.0610 165° South 492 566 37,000  Level FlightAware ADS-B
08:50PM 35.5317 -85.0393 165° South 490 564 37,000  Level FlightAware ADS-B
08:51PM 35.4652 -85.0176 165° South 491 565 37,000  Level FlightAware ADS-B
08:51PM 35.3986 -84.9959 165° South 489 563 37,000  Level FlightAware ADS-B
08:52PM 35.3321 -84.9744 165° South 489 563 37,000  Level FlightAware ADS-B
08:52PM 35.2658 -84.9531 165° South 488 562 37,000  Level FlightAware ADS-B
08:53PM 35.2001 -84.9318 165° South 488 562 37,000  Level FlightAware ADS-B
08:54PM 35.1333 -84.9103 165° South 487 560 37,000  Level FlightAware ADS-B
08:54PM 35.0638 -84.8880 165° South 486 559 37,000  Level FlightAware ADS-B
08:55PM 34.9977 -84.8669 165° South 485 558 37,000  Level FlightAware ADS-B
08:56PM 34.8510 -84.8200 165° South 482 555 37,000  Level FlightAware
08:56PM 34.8285 -84.8128 165° South 484 557 37,000  Level FlightAware ADS-B
08:56PM 34.7571 -84.7900 165° South 480 552 37,000  Level FlightAware ADS-B
08:57PM 34.6722 -84.7628 165° South 479 551 37,000  Level FlightAware ADS-B
08:58PM 34.6047 -84.7414 165° South 478 550 37,000  Level FlightAware ADS-B
08:58PM 34.5269 -84.7166 165° South 478 550 37,000  Level FlightAware ADS-B
08:59PM 34.4010 -84.6770 165° South 478 550 37,000  Level FlightAware
09:00PM 34.3512 -84.6614 165° South 480 552 37,000  Level FlightAware ADS-B
09:01PM 34.2300 -84.6230 165° South 481 554 37,000  Level FlightAware
09:01PM 34.1330 -84.5920 165° South 482 555 37,000  Level FlightAware
09:02PM 34.0460 -84.5650 166° South 483 556 37,000  Level FlightAware
09:03PM 33.9539 -84.5397 162° South 475 547 37,000  Level Atlanta Center
09:04PM 33.7538 -84.4521 162° South 490 564 37,000  Level FlightAware ADS-B
09:05PM 33.6183 -84.3970 161° South 492 566 37,000  Level FlightAware ADS-B
09:06PM 33.5505 -84.3696 161° South 492 566 37,000  Level FlightAware ADS-B
09:07PM 33.4082 -84.3117 161° South 492 566 37,000  Level FlightAware ADS-B
09:08PM 33.3090 -84.2720 162° South 491 565 37,000  Level FlightAware
09:08PM 33.2380 -84.2430 161° South 490 564 37,000  Level FlightAware
09:09PM 33.1350 -84.2010 161° South 488 562 37,000  Level FlightAware
09:10PM 33.0440 -84.1650 162° South 485 558 37,000  Level FlightAware
09:10PM 32.9560 -84.1320 163° South 484 557 37,000  Level FlightAware
09:11PM 32.8650 -84.1010 164° South 485 558 37,000  Level FlightAware
09:12PM 32.7730 -84.0690 164° South 487 560 37,000  Level FlightAware
09:13PM 32.6910 -84.0390 163° South 490 564 37,000  Level FlightAware
09:13PM 32.5900 -84.0040 164° South 484 557 37,000  Level FlightAware
09:14PM 32.5080 -83.9750 163° South 485 558 37,000  Level FlightAware
09:15PM 32.4310 -83.9480 164° South 486 559 37,000  Level FlightAware
09:15PM 32.3170 -83.9070 163° South 490 564 37,000  Level FlightAware
09:16PM 32.2490 -83.8830 163° South 490 564 37,000  Level FlightAware
09:17PM 32.1570 -83.8500 163° South 490 564 37,000  Level FlightAware
09:17PM 32.0830 -83.8230 163° South 490 564 37,000  Level FlightAware
09:18PM 32.0100 -83.7970 163° South 490 564 37,000  Level FlightAware
09:19PM 31.9360 -83.7700 163° South 490 564 37,000  Level FlightAware
09:19PM 31.8620 -83.7440 163° South 490 564 37,000  Level FlightAware
09:20PM 31.7700 -83.7110 163° South 490 564 37,000  Level FlightAware
09:21PM 31.6960 -83.6840 163° South 490 564 37,000  Level FlightAware
09:22PM 31.6230 -83.6580 163° South 490 564 37,000  Level FlightAware
09:22PM 31.5490 -83.6310 163° South 490 564 37,000  Level FlightAware
09:23PM 31.4750 -83.6050 163° South 490 564 37,000  Level FlightAware
09:24PM 31.1810 -83.5150 165° South 479 551 37,000  Level FlightAware
09:25PM 31.0970 -83.4870 164° South 480 552 37,000  Level FlightAware
09:25PM 31.0836 -83.4819 164° South 473 544 37,000  Level Jacksonville Center
09:26PM 30.9440 -83.4350 164° South 478 550 37,000  Level FlightAware
09:27PM 30.9440 -83.4350 164° South 472 543 37,000  Level FlightAware
09:28PM 30.7370 -83.3650 164° South 465 535 37,000 -240 Level FlightAware
09:28PM 30.6420 -83.3320 163° South 464 534 36,600 -780 Descending FlightAware
09:29PM 30.5430 -83.2990 164° South 473 544 35,800 -780 Descending FlightAware
09:30PM 30.4920 -83.2810 163° South 472 543 35,200 -360 Descending FlightAware
09:31PM 30.4210 -83.2560 163° South 472 543 35,200 -1,140 Level FlightAware
09:32PM 30.5430 -83.2990 343° North 476 548 33,700 -1,080 Descending FlightAware
09:32PM 30.4550 -83.2680 163° South 476 548 33,700  Level FlightAware
09:33PM 30.3660 -83.2360 163° South 476 548 33,700  Level FlightAware
09:34PM 30.2940 -83.2110 163° South 476 548 33,700  Level FlightAware
09:34PM 30.2230 -83.1860 163° South 476 548 33,700  Level FlightAware
09:35PM 30.1510 -83.1600 163° South 476 548 33,700  Level FlightAware
09:36PM 30.0790 -83.1350 163° South 476 548 33,700  Level FlightAware
09:36PM 30.0080 -83.1100 163° South 476 548 33,700 -1,800 Level FlightAware
09:37PM 29.5260 -82.9610 165° South 450 518 31,000 -1,800 Descending FlightAware
09:38PM 29.4430 -82.9330 164° South 456 525 31,000  Level FlightAware
09:39PM 29.3480 -82.9020 164° South 453 521 31,000  Level FlightAware
09:39PM 29.2700 -82.8760 164° South 452 520 31,000  Level FlightAware
09:40PM 29.1910 -82.8510 165° South 450 518 31,000  Level FlightAware
09:41PM 29.0970 -82.8200 164° South 452 520 31,000  Level FlightAware
09:41PM 29.0180 -82.7940 164° South 450 518 31,000  Level FlightAware
09:42PM 28.9200 -82.7620 164° South 448 516 31,000  Level FlightAware
09:43PM 28.8450 -82.7380 164° South 439 505 31,000  Level FlightAware
09:44PM 28.7640 -82.7120 164° South 438 504 31,000  Level FlightAware
09:44PM 28.6770 -82.6830 164° South 436 502 31,000  Level FlightAware
09:45PM 28.5990 -82.6580 164° South 435 501 31,000  Level FlightAware
09:46PM 28.5090 -82.6290 164° South 433 498 31,000  Level FlightAware
09:46PM 28.4320 -82.6040 164° South 432 497 31,000  Level FlightAware
09:47PM 28.3520 -82.5790 165° South 437 503 31,000  Level FlightAware
09:48PM 28.2650 -82.5510 164° South 436 502 31,000  Level FlightAware
09:48PM 28.1880 -82.5260 164° South 435 501 31,000  Level FlightAware
09:49PM 28.0990 -82.4970 164° South 433 498 31,000  Level FlightAware
09:50PM 28.0230 -82.4730 164° South 433 498 31,000  Level FlightAware
09:51PM 27.9340 -82.4450 164° South 433 498 31,000 -240 Level FlightAware
09:51PM 27.8580 -82.4200 164° South 433 498 30,700 -720 Descending FlightAware
09:52PM 27.7790 -82.3950 164° South 433 498 30,100 -960 Descending FlightAware
09:53PM 27.6940 -82.3680 164° South 437 503 29,400 -780 Descending FlightAware
09:53PM 27.6160 -82.3440 165° South 434 499 29,000 -300 Descending FlightAware
09:54PM 27.5370 -82.3190 164° South 432 497 29,000  Level FlightAware
09:55PM 27.4540 -82.2840 159° South 434 499 29,000 -240 Level FlightAware
09:55PM 27.3840 -82.2310 146° Southeast 444 511 28,700 -720 Descending FlightAware
09:56PM 27.3100 -82.1690 143° Southeast 443 510 28,000 -1,020 Descending FlightAware
09:57PM 27.2430 -82.1140 144° Southeast 438 504 27,300 -1,080 Descending FlightAware
09:58PM 27.1790 -82.0610 144° Southeast 434 499 26,600 -1,080 Descending FlightAware
09:58PM 27.1060 -82.0010 144° Southeast 432 497 25,800 -1,080 Descending FlightAware
09:59PM 27.0400 -81.9470 144° Southeast 432 497 25,100 -1,020 Descending FlightAware
10:00PM 26.9660 -81.8870 144° Southeast 424 488 24,400 -780 Descending FlightAware
10:00PM 26.9030 -81.8350 144° Southeast 422 486 24,000 -300 Descending FlightAware
10:01PM 26.8390 -81.7820 144° Southeast 421 484 24,000 -180 Level FlightAware
10:02PM 26.7770 -81.7320 144° Southeast 423 487 23,800 -1,380 Descending FlightAware
10:02PM 26.7130 -81.6790 144° Southeast 418 481 22,200 -2,340 Descending FlightAware
10:03PM 26.6430 -81.6230 144° Southeast 401 461 20,500 -2,220 Descending FlightAware
10:04PM 26.5770 -81.5690 144° Southeast 395 455 18,900 -2,160 Descending FlightAware
10:05PM 26.5170 -81.5200 144° Southeast 380 437 17,500 -2,100 Descending FlightAware
10:05PM 26.4600 -81.4740 144° Southeast 380 437 16,100 -1,920 Descending FlightAware
10:06PM 26.4020 -81.4140 137° Southeast 376 433 14,800 -1,680 Descending FlightAware
10:07PM 26.3610 -81.3510 126° Southeast 378 435 13,800 -1,500 Descending FlightAware
10:07PM 26.3190 -81.2890 127° Southeast 376 433 12,800 -1,680 Descending FlightAware
10:08PM 26.2720 -81.2190 127° Southeast 361 415 11,500 -1,680 Descending FlightAware
10:09PM 26.2330 -81.1600 126° Southeast 350 403 10,500 -1,020 Descending FlightAware
10:09PM 26.1960 -81.1050 127° Southeast 311 358 10,200 -600 Descending FlightAware
10:10PM 26.1710 -81.0670 126° Southeast 298 343 9,800 -1,020 Descending FlightAware
10:10PM 26.1460 -81.0300 127° Southeast 295 339 9,200 -1,320 Descending FlightAware
10:11PM 26.1260 -81.0000 127° Southeast 293 337 8,600 -1,440 Descending FlightAware
10:11PM 26.1060 -80.9620 120° Southeast 294 338 7,900 -1,500 Descending FlightAware
10:12PM 26.1020 -80.9400 101° East 296 341 7,500 -1,500 Descending FlightAware
10:12PM 26.1000 -80.9010 93° East 292 336 6,900 -1,200 Descending FlightAware
10:13PM 26.0970 -80.8580 94° East 283 326 6,400 -900 Descending FlightAware
10:13PM 26.0940 -80.8140 94° East 278 320 6,000 -480 Descending FlightAware
10:13PM 26.0910 -80.7790 95° East 277 319 6,000  Level FlightAware
10:14PM 26.0930 -80.7220 88° East 281 323 6,000  Level FlightAware
10:15PM 26.0970 -80.6850 83° East 280 322 6,000  Level FlightAware
10:15PM 26.1020 -80.6350 84° East 281 323 6,000  Level FlightAware
10:16PM 26.1060 -80.5990 83° East 281 323 6,000  Level FlightAware
10:16PM 26.1110 -80.5570 82° East 281 323 6,000  Level FlightAware
10:17PM 26.1150 -80.5130 84° East 281 323 6,000  Level FlightAware
10:17PM 26.1190 -80.4760 83° East 282 325 6,000  Level FlightAware
10:17PM 26.1240 -80.4350 82° East 284 327 6,000  Level FlightAware
10:18PM 26.1280 -80.3970 83° East 285 328 6,000  Level FlightAware
10:18PM 26.1320 -80.3580 83° East 286 329 6,000  Level FlightAware
10:19PM 26.1360 -80.3160 84° East 286 329 6,000  Level FlightAware
10:19PM 26.1410 -80.2720 83° East 287 330 6,000  Level FlightAware
10:20PM 26.1450 -80.2290 84° East 287 330 6,000  Level FlightAware
10:20PM 26.1490 -80.1920 83° East 288 331 6,000 -120 Level FlightAware
10:21PM 26.1540 -80.1500 82° East 264 304 5,900 -600 Descending FlightAware
10:21PM 26.1560 -80.1110 87° East 247 284 5,400 -1,140 Descending FlightAware
10:22PM 26.1580 -80.0790 86° East 241 277 4,900 -1,200 Descending FlightAware
10:22PM 26.1590 -80.0430 88° East 238 274 4,300 -1,320 Descending FlightAware
10:22PM 26.1600 -80.0180 87° East 241 277 3,800 -1,440 Descending FlightAware
10:23PM 26.1610 -79.9720 89° East 236 272 3,000 -1,320 Descending FlightAware
10:24PM 26.1480 -79.9400 114° Southeast 235 270 2,400 -1,380 Descending FlightAware
10:24PM 26.1310 -79.9340 162° South 237 273 2,000 -720 Descending FlightAware
10:24PM 26.1100 -79.9300 170° South 221 254 2,000  Level FlightAware
10:24PM 26.0930 -79.9380 203° Southwest 192 221 2,000  Level FlightAware
10:25PM 26.0780 -79.9610 234° Southwest 176 203 2,000  Level FlightAware
10:25PM 26.0750 -79.9820 261° West 169 194 2,000  Level FlightAware
10:26PM 26.0750 -79.9890 270° West 166 191 2,000  Level FlightAware
10:26PM 26.0760 -80.0180 272° West 165 190 2,000 -240 Level FlightAware
10:27PM 26.0760 -80.0400 270° West 163 188 1,800 -780 Descending FlightAware
10:27PM 26.0760 -80.0730 270° West 136 157 1,200 -900 Descending FlightAware
10:28PM 26.0770 -80.0940 273° West 132 152 800 -660 Descending FlightAware
10:28PM 26.0770 -80.1160 270° West 135 155 500 -300 Descending FlightAware
10:29PM 26.0770 -80.1320 270° West 135 155 500  Level FlightAware